sensor_id;sensor_type;location;lat;lon;timestamp;temperature;humidity
33837;DHT22;20140;49.356;8.812;2023-05-07T00:01:53;13.00;99.90
33837;DHT22;20140;49.356;8.812;2023-05-07T00:04:19;13.00;99.90
33837;DHT22;20140;49.356;8.812;2023-05-07T00:06:44;12.90;99.90
33837;DHT22;20140;49.356;8.812;2023-05-07T00:09:10;12.90;99.90
33837;DHT22;20140;49.356;8.812;2023-05-07T00:11:36;12.90;99.90
33837;DHT22;20140;49.356;8.812;2023-05-07T00:14:01;12.90;99.90
33837;DHT22;20140;49.356;8.812;2023-05-07T00:16:27;12.90;99.90
33837;DHT22;20140;49.356;8.812;2023-05-07T00:18:52;12.80;99.90
33837;DHT22;20140;49.356;8.812;2023-05-07T00:21:18;12.80;99.90
33837;DHT22;20140;49.356;8.812;2023-05-07T00:23:44;12.70;99.90
33837;DHT22;20140;49.356;8.812;2023-05-07T00:26:10;12.70;99.90
33837;DHT22;20140;49.356;8.812;2023-05-07T00:28:35;12.70;99.90
33837;DHT22;20140;49.356;8.812;2023-05-07T00:31:01;12.60;99.90
33837;DHT22;20140;49.356;8.812;2023-05-07T00:33:26;12.60;99.90
33837;DHT22;20140;49.356;8.812;2023-05-07T00:35:52;12.60;99.90
33837;DHT22;20140;49.356;8.812;2023-05-07T00:38:17;12.50;99.90
33837;DHT22;20140;49.356;8.812;2023-05-07T00:40:43;12.50;99.90
33837;DHT22;20140;49.356;8.812;2023-05-07T00:43:08;12.40;99.90
33837;DHT22;20140;49.356;8.812;2023-05-07T00:45:34;12.40;99.90
33837;DHT22;20140;49.356;8.812;2023-05-07T00:48:00;12.40;99.90
33837;DHT22;20140;49.356;8.812;2023-05-07T00:50:28;12.50;99.90
33837;DHT22;20140;49.356;8.812;2023-05-07T00:52:55;12.60;99.90
33837;DHT22;20140;49.356;8.812;2023-05-07T00:55:22;12.70;99.90
33837;DHT22;20140;49.356;8.812;2023-05-07T00:57:49;12.80;99.90
33837;DHT22;20140;49.356;8.812;2023-05-07T01:00:15;12.80;99.90
33837;DHT22;20140;49.356;8.812;2023-05-07T01:02:41;12.80;99.90
33837;DHT22;20140;49.356;8.812;2023-05-07T01:05:09;12.70;99.90
33837;DHT22;20140;49.356;8.812;2023-05-07T01:07:35;12.70;99.90
33837;DHT22;20140;49.356;8.812;2023-05-07T01:10:03;12.50;99.90
33837;DHT22;20140;49.356;8.812;2023-05-07T01:12:29;12.50;99.90
33837;DHT22;20140;49.356;8.812;2023-05-07T01:14:56;12.40;99.90
33837;DHT22;20140;49.356;8.812;2023-05-07T01:17:22;12.50;99.90
33837;DHT22;20140;49.356;8.812;2023-05-07T01:19:48;12.50;99.90
33837;DHT22;20140;49.356;8.812;2023-05-07T01:22:15;12.40;99.90
33837;DHT22;20140;49.356;8.812;2023-05-07T01:24:42;12.40;99.90
33837;DHT22;20140;49.356;8.812;2023-05-07T01:27:07;12.40;99.90
33837;DHT22;20140;49.356;8.812;2023-05-07T01:29:33;12.40;99.90
33837;DHT22;20140;49.356;8.812;2023-05-07T01:32:00;12.40;99.90
33837;DHT22;20140;49.356;8.812;2023-05-07T01:34:28;12.50;99.90
33837;DHT22;20140;49.356;8.812;2023-05-07T01:36:56;12.50;99.90
33837;DHT22;20140;49.356;8.812;2023-05-07T01:39:25;12.50;99.90
33837;DHT22;20140;49.356;8.812;2023-05-07T01:41:54;12.60;99.90
33837;DHT22;20140;49.356;8.812;2023-05-07T01:44:20;12.50;99.90
33837;DHT22;20140;49.356;8.812;2023-05-07T01:46:46;12.50;99.90
33837;DHT22;20140;49.356;8.812;2023-05-07T01:49:12;12.40;99.90
33837;DHT22;20140;49.356;8.812;2023-05-07T01:51:38;12.30;99.90
33837;DHT22;20140;49.356;8.812;2023-05-07T01:54:04;12.30;99.90
33837;DHT22;20140;49.356;8.812;2023-05-07T01:56:31;12.20;99.90
33837;DHT22;20140;49.356;8.812;2023-05-07T01:58:56;12.10;99.90
33837;DHT22;20140;49.356;8.812;2023-05-07T02:01:22;12.00;99.90
33837;DHT22;20140;49.356;8.812;2023-05-07T02:03:47;12.10;99.90
33837;DHT22;20140;49.356;8.812;2023-05-07T02:06:13;12.10;99.90
33837;DHT22;20140;49.356;8.812;2023-05-07T02:08:38;12.10;99.90
33837;DHT22;20140;49.356;8.812;2023-05-07T02:11:04;12.20;99.90
33837;DHT22;20140;49.356;8.812;2023-05-07T02:13:31;12.20;99.90
33837;DHT22;20140;49.356;8.812;2023-05-07T02:15:57;12.20;99.90
33837;DHT22;20140;49.356;8.812;2023-05-07T02:18:23;12.20;99.90
33837;DHT22;20140;49.356;8.812;2023-05-07T02:20:48;12.20;99.90
33837;DHT22;20140;49.356;8.812;2023-05-07T02:23:14;12.00;99.90
33837;DHT22;20140;49.356;8.812;2023-05-07T02:25:39;12.00;99.90
33837;DHT22;20140;49.356;8.812;2023-05-07T02:28:05;11.90;99.90
33837;DHT22;20140;49.356;8.812;2023-05-07T02:30:31;11.80;99.90
33837;DHT22;20140;49.356;8.812;2023-05-07T02:32:57;11.80;99.90
33837;DHT22;20140;49.356;8.812;2023-05-07T02:35:24;11.80;99.90
33837;DHT22;20140;49.356;8.812;2023-05-07T02:37:50;11.90;99.90
33837;DHT22;20140;49.356;8.812;2023-05-07T02:40:15;11.80;99.90
33837;DHT22;20140;49.356;8.812;2023-05-07T02:42:41;11.80;99.90
33837;DHT22;20140;49.356;8.812;2023-05-07T02:45:07;11.70;99.90
33837;DHT22;20140;49.356;8.812;2023-05-07T02:47:32;11.70;99.90
33837;DHT22;20140;49.356;8.812;2023-05-07T02:49:58;11.70;99.90
33837;DHT22;20140;49.356;8.812;2023-05-07T02:52:24;11.80;99.90
33837;DHT22;20140;49.356;8.812;2023-05-07T02:54:49;11.90;99.90
33837;DHT22;20140;49.356;8.812;2023-05-07T02:57:15;11.90;99.90
33837;DHT22;20140;49.356;8.812;2023-05-07T02:59:41;11.70;99.90
33837;DHT22;20140;49.356;8.812;2023-05-07T03:02:06;11.60;99.90
33837;DHT22;20140;49.356;8.812;2023-05-07T03:04:32;11.50;99.90
33837;DHT22;20140;49.356;8.812;2023-05-07T03:06:57;11.50;99.90
33837;DHT22;20140;49.356;8.812;2023-05-07T03:09:23;11.50;99.90
33837;DHT22;20140;49.356;8.812;2023-05-07T03:11:48;11.60;99.90
33837;DHT22;20140;49.356;8.812;2023-05-07T03:14:14;11.50;99.90
33837;DHT22;20140;49.356;8.812;2023-05-07T03:16:39;11.50;99.90
33837;DHT22;20140;49.356;8.812;2023-05-07T03:19:05;11.50;99.90
33837;DHT22;20140;49.356;8.812;2023-05-07T03:21:31;11.50;99.90
33837;DHT22;20140;49.356;8.812;2023-05-07T03:23:59;11.50;99.90
33837;DHT22;20140;49.356;8.812;2023-05-07T03:26:24;11.50;99.90
33837;DHT22;20140;49.356;8.812;2023-05-07T03:28:50;11.50;99.90
33837;DHT22;20140;49.356;8.812;2023-05-07T03:31:16;11.50;99.90
33837;DHT22;20140;49.356;8.812;2023-05-07T03:33:52;11.40;99.90
33837;DHT22;20140;49.356;8.812;2023-05-07T03:36:18;11.40;99.90
33837;DHT22;20140;49.356;8.812;2023-05-07T03:38:44;11.40;99.90
33837;DHT22;20140;49.356;8.812;2023-05-07T03:41:09;11.40;99.90
33837;DHT22;20140;49.356;8.812;2023-05-07T03:43:35;11.50;99.90
33837;DHT22;20140;49.356;8.812;2023-05-07T03:46:00;11.50;99.90
33837;DHT22;20140;49.356;8.812;2023-05-07T03:48:26;11.40;99.90
33837;DHT22;20140;49.356;8.812;2023-05-07T03:50:51;11.50;99.90
33837;DHT22;20140;49.356;8.812;2023-05-07T03:53:17;11.60;99.90
33837;DHT22;20140;49.356;8.812;2023-05-07T03:55:42;11.60;99.90
33837;DHT22;20140;49.356;8.812;2023-05-07T03:58:08;11.70;99.90
33837;DHT22;20140;49.356;8.812;2023-05-07T04:00:33;11.60;99.90
33837;DHT22;20140;49.356;8.812;2023-05-07T04:03:03;11.50;99.90
33837;DHT22;20140;49.356;8.812;2023-05-07T04:05:30;11.60;99.90
33837;DHT22;20140;49.356;8.812;2023-05-07T04:07:55;11.60;99.90
33837;DHT22;20140;49.356;8.812;2023-05-07T04:10:21;11.50;99.90
33837;DHT22;20140;49.356;8.812;2023-05-07T04:12:46;11.50;99.90
33837;DHT22;20140;49.356;8.812;2023-05-07T04:15:12;11.50;99.90
33837;DHT22;20140;49.356;8.812;2023-05-07T04:17:38;11.60;99.90
33837;DHT22;20140;49.356;8.812;2023-05-07T04:20:04;11.50;99.90
33837;DHT22;20140;49.356;8.812;2023-05-07T04:22:29;11.50;99.90
33837;DHT22;20140;49.356;8.812;2023-05-07T04:24:55;11.50;99.90
33837;DHT22;20140;49.356;8.812;2023-05-07T04:27:21;11.50;99.90
33837;DHT22;20140;49.356;8.812;2023-05-07T04:29:47;11.60;99.90
33837;DHT22;20140;49.356;8.812;2023-05-07T04:32:13;11.70;99.90
33837;DHT22;20140;49.356;8.812;2023-05-07T04:34:38;11.60;99.90
33837;DHT22;20140;49.356;8.812;2023-05-07T04:37:04;11.50;99.90
33837;DHT22;20140;49.356;8.812;2023-05-07T04:39:29;11.40;99.90
33837;DHT22;20140;49.356;8.812;2023-05-07T04:41:55;11.40;99.90
33837;DHT22;20140;49.356;8.812;2023-05-07T04:44:20;11.40;99.90
33837;DHT22;20140;49.356;8.812;2023-05-07T04:46:46;11.40;99.90
33837;DHT22;20140;49.356;8.812;2023-05-07T04:49:11;11.50;99.90
33837;DHT22;20140;49.356;8.812;2023-05-07T04:51:37;11.60;99.90
33837;DHT22;20140;49.356;8.812;2023-05-07T04:54:03;11.50;99.90
33837;DHT22;20140;49.356;8.812;2023-05-07T04:56:29;11.70;99.90
33837;DHT22;20140;49.356;8.812;2023-05-07T04:58:57;11.90;99.90
33837;DHT22;20140;49.356;8.812;2023-05-07T05:01:23;11.90;99.90
33837;DHT22;20140;49.356;8.812;2023-05-07T05:03:48;12.00;99.90
33837;DHT22;20140;49.356;8.812;2023-05-07T05:06:14;12.00;99.90
33837;DHT22;20140;49.356;8.812;2023-05-07T05:08:39;12.10;99.90
33837;DHT22;20140;49.356;8.812;2023-05-07T05:11:05;12.10;99.90
33837;DHT22;20140;49.356;8.812;2023-05-07T05:13:30;12.10;99.90
33837;DHT22;20140;49.356;8.812;2023-05-07T05:15:56;12.20;99.90
33837;DHT22;20140;49.356;8.812;2023-05-07T05:18:22;12.20;99.90
33837;DHT22;20140;49.356;8.812;2023-05-07T05:20:47;12.30;99.90
33837;DHT22;20140;49.356;8.812;2023-05-07T05:23:12;12.40;99.90
33837;DHT22;20140;49.356;8.812;2023-05-07T05:25:38;12.40;99.90
33837;DHT22;20140;49.356;8.812;2023-05-07T05:28:04;12.40;99.90
33837;DHT22;20140;49.356;8.812;2023-05-07T05:30:30;12.40;99.90
33837;DHT22;20140;49.356;8.812;2023-05-07T05:32:55;12.50;99.90
33837;DHT22;20140;49.356;8.812;2023-05-07T05:35:21;12.60;99.90
33837;DHT22;20140;49.356;8.812;2023-05-07T05:37:46;12.60;99.90
33837;DHT22;20140;49.356;8.812;2023-05-07T05:40:13;12.80;99.90
33837;DHT22;20140;49.356;8.812;2023-05-07T05:42:38;12.80;99.90
33837;DHT22;20140;49.356;8.812;2023-05-07T05:45:05;12.70;99.90
33837;DHT22;20140;49.356;8.812;2023-05-07T05:47:31;12.80;99.90
33837;DHT22;20140;49.356;8.812;2023-05-07T05:49:56;12.70;99.90
33837;DHT22;20140;49.356;8.812;2023-05-07T05:52:21;12.80;99.90
33837;DHT22;20140;49.356;8.812;2023-05-07T05:54:49;12.80;99.90
33837;DHT22;20140;49.356;8.812;2023-05-07T05:57:14;12.80;99.90
33837;DHT22;20140;49.356;8.812;2023-05-07T05:59:42;12.90;99.90
33837;DHT22;20140;49.356;8.812;2023-05-07T06:02:08;13.00;99.90
33837;DHT22;20140;49.356;8.812;2023-05-07T06:04:33;12.90;99.90
33837;DHT22;20140;49.356;8.812;2023-05-07T06:06:59;13.00;99.90
33837;DHT22;20140;49.356;8.812;2023-05-07T06:09:24;13.00;99.90
33837;DHT22;20140;49.356;8.812;2023-05-07T06:11:50;13.10;99.90
33837;DHT22;20140;49.356;8.812;2023-05-07T06:14:15;13.20;99.90
33837;DHT22;20140;49.356;8.812;2023-05-07T06:16:41;13.20;99.90
33837;DHT22;20140;49.356;8.812;2023-05-07T06:19:07;13.40;99.90
33837;DHT22;20140;49.356;8.812;2023-05-07T06:21:32;13.50;99.90
33837;DHT22;20140;49.356;8.812;2023-05-07T06:23:58;13.60;99.90
33837;DHT22;20140;49.356;8.812;2023-05-07T06:26:23;13.80;99.90
33837;DHT22;20140;49.356;8.812;2023-05-07T06:28:49;14.00;99.90
33837;DHT22;20140;49.356;8.812;2023-05-07T06:31:16;14.20;99.90
33837;DHT22;20140;49.356;8.812;2023-05-07T06:33:42;14.30;99.90
33837;DHT22;20140;49.356;8.812;2023-05-07T06:36:08;14.30;99.90
33837;DHT22;20140;49.356;8.812;2023-05-07T06:38:34;14.40;99.90
33837;DHT22;20140;49.356;8.812;2023-05-07T06:40:59;14.40;99.90
33837;DHT22;20140;49.356;8.812;2023-05-07T06:43:25;14.40;99.90
33837;DHT22;20140;49.356;8.812;2023-05-07T06:45:51;14.50;99.90
33837;DHT22;20140;49.356;8.812;2023-05-07T06:48:16;14.60;99.90
33837;DHT22;20140;49.356;8.812;2023-05-07T06:50:42;14.70;99.90
33837;DHT22;20140;49.356;8.812;2023-05-07T06:53:07;14.90;99.90
33837;DHT22;20140;49.356;8.812;2023-05-07T06:55:33;15.00;99.90
33837;DHT22;20140;49.356;8.812;2023-05-07T06:57:58;15.20;99.90
33837;DHT22;20140;49.356;8.812;2023-05-07T07:00:26;15.30;99.90
33837;DHT22;20140;49.356;8.812;2023-05-07T07:02:53;15.40;99.90
33837;DHT22;20140;49.356;8.812;2023-05-07T07:05:18;15.50;99.90
33837;DHT22;20140;49.356;8.812;2023-05-07T07:07:44;15.60;99.90
33837;DHT22;20140;49.356;8.812;2023-05-07T07:10:09;15.70;99.90
33837;DHT22;20140;49.356;8.812;2023-05-07T07:12:35;15.80;99.90
33837;DHT22;20140;49.356;8.812;2023-05-07T07:15:00;15.90;99.90
33837;DHT22;20140;49.356;8.812;2023-05-07T07:17:27;16.20;99.90
33837;DHT22;20140;49.356;8.812;2023-05-07T07:19:53;16.30;99.90
33837;DHT22;20140;49.356;8.812;2023-05-07T07:22:19;16.40;99.90
33837;DHT22;20140;49.356;8.812;2023-05-07T07:24:44;16.50;99.90
33837;DHT22;20140;49.356;8.812;2023-05-07T07:27:10;16.50;99.90
33837;DHT22;20140;49.356;8.812;2023-05-07T07:29:35;16.60;99.90
33837;DHT22;20140;49.356;8.812;2023-05-07T07:32:01;16.80;99.90
33837;DHT22;20140;49.356;8.812;2023-05-07T07:34:26;17.00;99.90
33837;DHT22;20140;49.356;8.812;2023-05-07T07:36:52;17.20;99.90
33837;DHT22;20140;49.356;8.812;2023-05-07T07:39:17;17.40;99.90
33837;DHT22;20140;49.356;8.812;2023-05-07T07:41:43;17.60;99.90
33837;DHT22;20140;49.356;8.812;2023-05-07T07:44:08;17.60;99.90
33837;DHT22;20140;49.356;8.812;2023-05-07T07:46:34;17.90;99.90
33837;DHT22;20140;49.356;8.812;2023-05-07T07:49:00;18.00;99.90
33837;DHT22;20140;49.356;8.812;2023-05-07T07:51:25;18.20;99.90
33837;DHT22;20140;49.356;8.812;2023-05-07T07:53:52;18.50;99.90
33837;DHT22;20140;49.356;8.812;2023-05-07T07:56:17;18.70;99.90
33837;DHT22;20140;49.356;8.812;2023-05-07T07:58:43;18.90;99.90
33837;DHT22;20140;49.356;8.812;2023-05-07T08:01:08;18.90;99.90
33837;DHT22;20140;49.356;8.812;2023-05-07T08:03:34;19.20;99.90
33837;DHT22;20140;49.356;8.812;2023-05-07T08:06:00;19.20;99.90
33837;DHT22;20140;49.356;8.812;2023-05-07T08:08:26;19.40;99.90
33837;DHT22;20140;49.356;8.812;2023-05-07T08:10:51;19.30;99.90
33837;DHT22;20140;49.356;8.812;2023-05-07T08:13:17;19.50;99.90
33837;DHT22;20140;49.356;8.812;2023-05-07T08:15:43;19.70;99.90
33837;DHT22;20140;49.356;8.812;2023-05-07T08:18:08;19.90;99.90
33837;DHT22;20140;49.356;8.812;2023-05-07T08:20:35;19.90;99.90
33837;DHT22;20140;49.356;8.812;2023-05-07T08:23:04;19.90;99.90
33837;DHT22;20140;49.356;8.812;2023-05-07T08:25:33;20.20;99.90
33837;DHT22;20140;49.356;8.812;2023-05-07T08:27:59;20.40;99.90
33837;DHT22;20140;49.356;8.812;2023-05-07T08:30:24;20.30;99.90
33837;DHT22;20140;49.356;8.812;2023-05-07T08:32:50;20.30;99.90
33837;DHT22;20140;49.356;8.812;2023-05-07T08:35:15;20.40;99.90
33837;DHT22;20140;49.356;8.812;2023-05-07T08:37:41;20.40;99.90
33837;DHT22;20140;49.356;8.812;2023-05-07T08:40:07;20.20;99.90
33837;DHT22;20140;49.356;8.812;2023-05-07T08:42:35;20.20;99.90
33837;DHT22;20140;49.356;8.812;2023-05-07T08:45:03;20.30;99.90
33837;DHT22;20140;49.356;8.812;2023-05-07T08:47:36;20.40;99.90
33837;DHT22;20140;49.356;8.812;2023-05-07T08:50:05;20.50;99.90
33837;DHT22;20140;49.356;8.812;2023-05-07T08:52:31;20.50;99.90
33837;DHT22;20140;49.356;8.812;2023-05-07T08:54:57;20.40;99.90
33837;DHT22;20140;49.356;8.812;2023-05-07T08:57:24;20.10;99.90
33837;DHT22;20140;49.356;8.812;2023-05-07T08:59:49;20.10;99.90
33837;DHT22;20140;49.356;8.812;2023-05-07T09:02:15;20.40;99.90
33837;DHT22;20140;49.356;8.812;2023-05-07T09:04:42;20.80;99.90
33837;DHT22;20140;49.356;8.812;2023-05-07T09:07:07;21.20;99.90
33837;DHT22;20140;49.356;8.812;2023-05-07T09:09:33;21.10;99.90
33837;DHT22;20140;49.356;8.812;2023-05-07T09:11:59;21.10;99.90
33837;DHT22;20140;49.356;8.812;2023-05-07T09:14:26;21.40;99.90
33837;DHT22;20140;49.356;8.812;2023-05-07T09:16:55;21.30;99.90
33837;DHT22;20140;49.356;8.812;2023-05-07T09:19:25;21.40;99.90
33837;DHT22;20140;49.356;8.812;2023-05-07T09:22:01;21.30;99.90
33837;DHT22;20140;49.356;8.812;2023-05-07T09:24:28;21.30;99.90
33837;DHT22;20140;49.356;8.812;2023-05-07T09:26:58;21.50;99.90
33837;DHT22;20140;49.356;8.812;2023-05-07T09:29:25;22.00;99.90
33837;DHT22;20140;49.356;8.812;2023-05-07T09:31:50;22.00;99.90
33837;DHT22;20140;49.356;8.812;2023-05-07T09:34:16;22.20;99.90
33837;DHT22;20140;49.356;8.812;2023-05-07T09:36:41;22.20;99.90
33837;DHT22;20140;49.356;8.812;2023-05-07T09:39:07;22.20;99.90
33837;DHT22;20140;49.356;8.812;2023-05-07T09:41:33;22.30;99.90
33837;DHT22;20140;49.356;8.812;2023-05-07T09:44:08;22.10;99.90
33837;DHT22;20140;49.356;8.812;2023-05-07T09:46:35;22.00;99.90
33837;DHT22;20140;49.356;8.812;2023-05-07T09:49:02;22.10;99.90
33837;DHT22;20140;49.356;8.812;2023-05-07T09:51:43;22.00;99.90
33837;DHT22;20140;49.356;8.812;2023-05-07T09:54:10;22.30;99.90
33837;DHT22;20140;49.356;8.812;2023-05-07T09:56:36;22.70;99.90
33837;DHT22;20140;49.356;8.812;2023-05-07T09:59:03;22.80;99.90
33837;DHT22;20140;49.356;8.812;2023-05-07T10:01:31;23.00;99.90
33837;DHT22;20140;49.356;8.812;2023-05-07T10:03:57;22.60;99.90
33837;DHT22;20140;49.356;8.812;2023-05-07T10:06:24;22.50;99.90
33837;DHT22;20140;49.356;8.812;2023-05-07T10:08:51;22.40;99.90
33837;DHT22;20140;49.356;8.812;2023-05-07T10:11:18;22.70;99.90
33837;DHT22;20140;49.356;8.812;2023-05-07T10:13:44;23.00;99.90
33837;DHT22;20140;49.356;8.812;2023-05-07T10:16:14;23.30;99.90
33837;DHT22;20140;49.356;8.812;2023-05-07T10:18:41;23.50;99.90
33837;DHT22;20140;49.356;8.812;2023-05-07T10:21:21;23.40;99.90
33837;DHT22;20140;49.356;8.812;2023-05-07T10:23:50;23.40;99.90
33837;DHT22;20140;49.356;8.812;2023-05-07T10:26:18;23.40;99.90
33837;DHT22;20140;49.356;8.812;2023-05-07T10:28:49;23.70;99.90
33837;DHT22;20140;49.356;8.812;2023-05-07T10:34:16;23.80;99.90
33837;DHT22;20140;49.356;8.812;2023-05-07T10:36:43;23.60;99.90
33837;DHT22;20140;49.356;8.812;2023-05-07T10:39:09;23.70;99.90
33837;DHT22;20140;49.356;8.812;2023-05-07T10:41:35;23.80;99.90
33837;DHT22;20140;49.356;8.812;2023-05-07T10:44:02;23.60;99.90
33837;DHT22;20140;49.356;8.812;2023-05-07T10:46:27;23.90;99.90
33837;DHT22;20140;49.356;8.812;2023-05-07T10:51:32;23.80;99.90
33837;DHT22;20140;49.356;8.812;2023-05-07T10:56:35;23.80;99.90
33837;DHT22;20140;49.356;8.812;2023-05-07T10:59:33;23.80;99.90
33837;DHT22;20140;49.356;8.812;2023-05-07T11:02:00;24.10;99.90
33837;DHT22;20140;49.356;8.812;2023-05-07T11:04:31;24.30;99.90
33837;DHT22;20140;49.356;8.812;2023-05-07T11:15:13;24.10;99.90
33837;DHT22;20140;49.356;8.812;2023-05-07T11:17:59;24.30;99.90
33837;DHT22;20140;49.356;8.812;2023-05-07T11:20:50;24.70;99.90
33837;DHT22;20140;49.356;8.812;2023-05-07T11:26:08;25.00;99.90
33837;DHT22;20140;49.356;8.812;2023-05-07T11:28:38;25.10;99.90
33837;DHT22;20140;49.356;8.812;2023-05-07T11:31:04;25.20;99.90
33837;DHT22;20140;49.356;8.812;2023-05-07T11:33:31;25.10;99.90
33837;DHT22;20140;49.356;8.812;2023-05-07T11:35:57;24.80;99.90
33837;DHT22;20140;49.356;8.812;2023-05-07T11:38:23;24.80;99.90
33837;DHT22;20140;49.356;8.812;2023-05-07T11:40:55;24.80;99.90
33837;DHT22;20140;49.356;8.812;2023-05-07T11:43:21;24.90;99.50
33837;DHT22;20140;49.356;8.812;2023-05-07T11:45:47;25.00;99.90
33837;DHT22;20140;49.356;8.812;2023-05-07T11:48:13;25.30;99.90
33837;DHT22;20140;49.356;8.812;2023-05-07T11:51:03;25.30;99.90
33837;DHT22;20140;49.356;8.812;2023-05-07T11:53:40;25.30;99.90
33837;DHT22;20140;49.356;8.812;2023-05-07T11:56:11;24.90;99.50
33837;DHT22;20140;49.356;8.812;2023-05-07T11:58:37;24.90;99.90
33837;DHT22;20140;49.356;8.812;2023-05-07T12:01:03;24.70;99.90
33837;DHT22;20140;49.356;8.812;2023-05-07T12:03:28;25.10;99.90
33837;DHT22;20140;49.356;8.812;2023-05-07T12:05:54;25.40;99.90
33837;DHT22;20140;49.356;8.812;2023-05-07T12:08:21;25.60;99.90
33837;DHT22;20140;49.356;8.812;2023-05-07T12:10:48;25.20;99.90
33837;DHT22;20140;49.356;8.812;2023-05-07T12:13:22;25.60;99.90
33837;DHT22;20140;49.356;8.812;2023-05-07T12:15:55;25.70;99.90
33837;DHT22;20140;49.356;8.812;2023-05-07T12:18:22;25.90;99.60
33837;DHT22;20140;49.356;8.812;2023-05-07T12:20:48;26.20;98.60
33837;DHT22;20140;49.356;8.812;2023-05-07T12:23:14;25.90;99.30
33837;DHT22;20140;49.356;8.812;2023-05-07T12:25:41;25.80;99.60
33837;DHT22;20140;49.356;8.812;2023-05-07T12:28:16;26.20;99.90
33837;DHT22;20140;49.356;8.812;2023-05-07T12:30:43;26.70;99.20
33837;DHT22;20140;49.356;8.812;2023-05-07T12:33:10;27.00;99.70
33837;DHT22;20140;49.356;8.812;2023-05-07T12:35:40;27.00;96.40
33837;DHT22;20140;49.356;8.812;2023-05-07T12:38:11;26.80;97.40
33837;DHT22;20140;49.356;8.812;2023-05-07T12:40:41;27.10;97.30
33837;DHT22;20140;49.356;8.812;2023-05-07T12:43:07;27.70;97.50
33837;DHT22;20140;49.356;8.812;2023-05-07T12:45:40;27.60;96.70
33837;DHT22;20140;49.356;8.812;2023-05-07T12:48:06;27.80;96.70
33837;DHT22;20140;49.356;8.812;2023-05-07T12:50:33;28.20;96.50
33837;DHT22;20140;49.356;8.812;2023-05-07T12:52:59;27.80;95.20
33837;DHT22;20140;49.356;8.812;2023-05-07T12:55:25;28.20;95.50
33837;DHT22;20140;49.356;8.812;2023-05-07T12:57:51;27.60;94.30
33837;DHT22;20140;49.356;8.812;2023-05-07T13:00:31;27.20;96.30
33837;DHT22;20140;49.356;8.812;2023-05-07T13:02:58;27.50;98.00
33837;DHT22;20140;49.356;8.812;2023-05-07T13:05:23;27.90;96.90
33837;DHT22;20140;49.356;8.812;2023-05-07T13:07:53;27.50;94.50
33837;DHT22;20140;49.356;8.812;2023-05-07T13:10:19;27.40;96.70
33837;DHT22;20140;49.356;8.812;2023-05-07T13:12:45;27.10;94.70
33837;DHT22;20140;49.356;8.812;2023-05-07T13:15:10;26.70;97.50
33837;DHT22;20140;49.356;8.812;2023-05-07T13:17:36;27.10;97.20
33837;DHT22;20140;49.356;8.812;2023-05-07T13:20:01;26.80;95.40
33837;DHT22;20140;49.356;8.812;2023-05-07T13:22:27;27.30;97.30
33837;DHT22;20140;49.356;8.812;2023-05-07T13:24:52;27.40;95.10
33837;DHT22;20140;49.356;8.812;2023-05-07T13:27:17;27.20;95.80
33837;DHT22;20140;49.356;8.812;2023-05-07T13:29:44;27.00;96.60
33837;DHT22;20140;49.356;8.812;2023-05-07T13:32:10;27.30;97.20
33837;DHT22;20140;49.356;8.812;2023-05-07T13:34:35;27.40;97.90
33837;DHT22;20140;49.356;8.812;2023-05-07T13:37:02;27.20;97.90
33837;DHT22;20140;49.356;8.812;2023-05-07T13:39:27;27.10;97.80
33837;DHT22;20140;49.356;8.812;2023-05-07T13:41:53;27.00;96.20
33837;DHT22;20140;49.356;8.812;2023-05-07T13:44:18;27.30;95.30
33837;DHT22;20140;49.356;8.812;2023-05-07T13:46:44;27.20;95.70
33837;DHT22;20140;49.356;8.812;2023-05-07T13:49:10;27.40;94.10
33837;DHT22;20140;49.356;8.812;2023-05-07T13:51:36;27.30;96.10
33837;DHT22;20140;49.356;8.812;2023-05-07T13:54:01;27.30;95.80
33837;DHT22;20140;49.356;8.812;2023-05-07T13:56:28;27.80;95.70
33837;DHT22;20140;49.356;8.812;2023-05-07T13:58:56;28.00;93.70
33837;DHT22;20140;49.356;8.812;2023-05-07T14:01:21;27.40;94.50
33837;DHT22;20140;49.356;8.812;2023-05-07T14:03:47;26.60;95.10
33837;DHT22;20140;49.356;8.812;2023-05-07T14:06:12;26.20;97.30
33837;DHT22;20140;49.356;8.812;2023-05-07T14:08:38;25.90;97.00
33837;DHT22;20140;49.356;8.812;2023-05-07T14:11:06;25.50;98.90
33837;DHT22;20140;49.356;8.812;2023-05-07T14:13:31;25.30;98.30
33837;DHT22;20140;49.356;8.812;2023-05-07T14:15:58;25.10;98.20
33837;DHT22;20140;49.356;8.812;2023-05-07T14:18:24;24.90;98.70
33837;DHT22;20140;49.356;8.812;2023-05-07T14:20:49;24.60;99.90
33837;DHT22;20140;49.356;8.812;2023-05-07T14:23:15;24.50;99.90
33837;DHT22;20140;49.356;8.812;2023-05-07T14:25:43;24.50;99.90
33837;DHT22;20140;49.356;8.812;2023-05-07T14:28:08;23.80;99.90
33837;DHT22;20140;49.356;8.812;2023-05-07T14:30:34;21.40;99.90
33837;DHT22;20140;49.356;8.812;2023-05-07T14:33:00;20.60;99.90
33837;DHT22;20140;49.356;8.812;2023-05-07T14:35:25;19.90;99.90
33837;DHT22;20140;49.356;8.812;2023-05-07T14:37:51;19.50;99.90
33837;DHT22;20140;49.356;8.812;2023-05-07T14:40:16;19.30;99.90
33837;DHT22;20140;49.356;8.812;2023-05-07T14:42:42;19.00;99.90
33837;DHT22;20140;49.356;8.812;2023-05-07T14:45:08;18.90;99.90
33837;DHT22;20140;49.356;8.812;2023-05-07T14:47:34;18.80;99.90
33837;DHT22;20140;49.356;8.812;2023-05-07T14:49:59;18.70;99.90
33837;DHT22;20140;49.356;8.812;2023-05-07T14:52:26;18.60;99.90
33837;DHT22;20140;49.356;8.812;2023-05-07T14:54:51;18.50;99.90
33837;DHT22;20140;49.356;8.812;2023-05-07T14:57:17;18.10;99.90
33837;DHT22;20140;49.356;8.812;2023-05-07T14:59:43;17.90;99.90
33837;DHT22;20140;49.356;8.812;2023-05-07T15:02:11;17.60;99.90
33837;DHT22;20140;49.356;8.812;2023-05-07T15:04:37;17.10;99.90
33837;DHT22;20140;49.356;8.812;2023-05-07T15:07:03;16.80;99.90
33837;DHT22;20140;49.356;8.812;2023-05-07T15:09:29;16.60;99.90
33837;DHT22;20140;49.356;8.812;2023-05-07T15:11:55;16.20;99.90
33837;DHT22;20140;49.356;8.812;2023-05-07T15:14:20;16.10;99.90
33837;DHT22;20140;49.356;8.812;2023-05-07T15:16:47;15.90;99.90
33837;DHT22;20140;49.356;8.812;2023-05-07T15:19:13;15.90;99.90
33837;DHT22;20140;49.356;8.812;2023-05-07T15:21:40;16.00;99.90
33837;DHT22;20140;49.356;8.812;2023-05-07T15:24:06;16.10;99.90
33837;DHT22;20140;49.356;8.812;2023-05-07T15:26:31;16.30;99.90
33837;DHT22;20140;49.356;8.812;2023-05-07T15:28:57;16.30;99.90
33837;DHT22;20140;49.356;8.812;2023-05-07T15:31:24;16.20;99.90
33837;DHT22;20140;49.356;8.812;2023-05-07T15:33:50;16.10;99.90
33837;DHT22;20140;49.356;8.812;2023-05-07T15:36:17;16.00;99.90
33837;DHT22;20140;49.356;8.812;2023-05-07T15:38:43;15.80;99.90
33837;DHT22;20140;49.356;8.812;2023-05-07T15:41:08;15.80;99.90
33837;DHT22;20140;49.356;8.812;2023-05-07T15:43:44;15.80;99.90
33837;DHT22;20140;49.356;8.812;2023-05-07T15:46:10;15.80;99.90